createdAt,value
2017-12-01T00:00:44.146Z,989.00
2017-12-01T00:01:50.182Z,988.87
2017-12-01T00:02:56.310Z,988.92
2017-12-01T00:04:02.942Z,988.94
2017-12-01T00:05:08.931Z,988.92
2017-12-01T00:06:14.459Z,988.95
2017-12-01T00:07:20.473Z,988.92
2017-12-01T00:08:26.553Z,988.89
2017-12-01T00:09:32.880Z,988.94
2017-12-01T00:10:39.007Z,989.00
2017-12-01T00:11:45.386Z,988.98
2017-12-01T00:12:50.780Z,988.98
2017-12-01T00:13:56.898Z,989.05
2017-12-01T00:15:03.019Z,989.07
2017-12-01T00:16:09.533Z,989.02
2017-12-01T00:17:15.022Z,989.06
2017-12-01T00:18:21.098Z,989.02
2017-12-01T00:19:27.158Z,989.10
2017-12-01T00:20:33.216Z,989.14
2017-12-01T00:21:39.837Z,989.23
2017-12-01T00:22:45.392Z,989.19
2017-12-01T00:23:52.039Z,989.08
2017-12-01T00:24:57.563Z,989.20
2017-12-01T00:26:03.551Z,989.21
2017-12-01T00:27:09.558Z,989.17
2017-12-01T00:28:15.642Z,989.21
2017-12-01T00:29:21.689Z,989.18
2017-12-01T00:30:28.774Z,989.20
2017-12-01T00:31:33.810Z,989.19
2017-12-01T00:32:39.868Z,989.21
2017-12-01T00:33:46.492Z,989.09
2017-12-01T00:34:52.029Z,989.23
2017-12-01T00:35:58.107Z,989.28
2017-12-01T00:37:04.126Z,989.23
2017-12-01T00:38:11.176Z,989.27
2017-12-01T00:39:16.406Z,989.31
2017-12-01T00:40:22.327Z,989.21
2017-12-01T00:41:29.012Z,989.26
2017-12-01T00:42:34.995Z,989.31
2017-12-01T00:43:41.033Z,989.29
2017-12-01T00:44:46.578Z,989.26
2017-12-01T00:45:52.978Z,989.26
2017-12-01T00:46:58.687Z,989.38
2017-12-01T00:48:04.745Z,989.35
2017-12-01T00:49:10.943Z,989.37
2017-12-01T00:50:16.947Z,989.30
2017-12-01T00:51:23.484Z,989.35
2017-12-01T00:52:29.091Z,989.38
2017-12-01T00:53:35.076Z,989.37
2017-12-01T00:54:41.120Z,989.37
2017-12-01T00:55:47.211Z,989.33
2017-12-01T00:56:53.311Z,989.35
2017-12-01T00:57:59.945Z,989.42
2017-12-01T00:59:05.382Z,989.44
2017-12-01T01:00:11.436Z,989.36
2017-12-01T01:01:17.541Z,989.35
2017-12-01T01:02:24.074Z,989.40
2017-12-01T01:03:29.812Z,989.34
2017-12-01T01:04:36.347Z,989.33
2017-12-01T01:05:41.821Z,989.43
2017-12-01T01:06:48.445Z,989.39
2017-12-01T01:07:53.906Z,989.39
2017-12-01T01:09:00.027Z,989.47
2017-12-01T01:10:06.584Z,989.46
2017-12-01T01:11:12.083Z,989.46
2017-12-01T01:12:18.125Z,989.39
2017-12-01T01:13:24.254Z,989.41
2017-12-01T01:14:30.258Z,989.45
2017-12-01T01:15:36.322Z,989.48
2017-12-01T01:16:42.368Z,989.47
2017-12-01T01:17:49.031Z,989.46
2017-12-01T01:18:54.494Z,989.47
2017-12-01T01:20:01.128Z,989.54
2017-12-01T01:21:06.626Z,989.47
2017-12-01T01:22:13.326Z,989.52
2017-12-01T01:23:18.863Z,989.55
2017-12-01T01:24:24.784Z,989.58
2017-12-01T01:25:31.588Z,989.55
2017-12-01T01:26:36.902Z,989.58
2017-12-01T01:27:42.964Z,989.60
2017-12-01T01:28:49.110Z,989.67
2017-12-01T01:29:55.670Z,989.72
2017-12-01T01:31:01.249Z,989.66
2017-12-01T01:32:07.358Z,989.78
2017-12-01T01:33:13.258Z,989.76
2017-12-01T01:34:19.320Z,989.78
2017-12-01T01:35:26.198Z,989.74
2017-12-01T01:36:31.555Z,989.74
2017-12-01T01:37:37.503Z,989.76
2017-12-01T01:38:44.095Z,989.72
2017-12-01T01:39:49.801Z,989.80
2017-12-01T01:40:55.791Z,989.90
2017-12-01T01:42:01.739Z,989.85
2017-12-01T01:43:07.798Z,989.83
2017-12-01T01:44:14.513Z,989.88
2017-12-01T01:45:19.972Z,989.86
2017-12-01T01:46:26.126Z,989.94
2017-12-01T01:47:32.030Z,989.93
2017-12-01T01:48:38.132Z,989.95
2017-12-01T01:49:44.140Z,990.03
2017-12-01T01:50:50.236Z,990.05
2017-12-01T01:51:56.778Z,989.86
2017-12-01T01:53:02.318Z,989.97
2017-12-01T01:54:08.375Z,989.95
2017-12-01T01:55:14.426Z,990.06
2017-12-01T01:56:20.818Z,989.99
2017-12-01T01:57:27.128Z,990.09
2017-12-01T01:58:32.663Z,990.14
2017-12-01T01:59:38.642Z,990.12
2017-12-01T02:00:44.716Z,990.14
2017-12-01T02:01:50.750Z,990.05
2017-12-01T02:02:56.803Z,990.08
2017-12-01T02:04:03.354Z,990.08
2017-12-01T02:05:08.894Z,990.03
2017-12-01T02:06:14.967Z,990.07
2017-12-01T02:07:21.046Z,990.03
2017-12-01T02:08:27.675Z,990.08
2017-12-01T02:09:33.652Z,990.02
2017-12-01T02:10:39.957Z,990.11
2017-12-01T02:11:45.822Z,990.23
2017-12-01T02:12:51.797Z,990.16
2017-12-01T02:13:57.344Z,990.20
2017-12-01T02:15:03.456Z,990.09
2017-12-01T02:16:09.621Z,990.12
2017-12-01T02:17:16.067Z,990.13
2017-12-01T02:18:21.489Z,990.12
2017-12-01T02:19:27.537Z,990.11
2017-12-01T02:20:33.580Z,990.06
2017-12-01T02:21:39.658Z,990.12
2017-12-01T02:22:46.448Z,990.10
2017-12-01T02:23:52.287Z,990.09
2017-12-01T02:24:57.776Z,990.16
2017-12-01T02:26:03.844Z,990.20
2017-12-01T02:27:09.868Z,990.24
2017-12-01T02:28:16.414Z,990.18
2017-12-01T02:29:22.529Z,990.21
2017-12-01T02:30:28.010Z,990.21
2017-12-01T02:31:34.807Z,990.13
2017-12-01T02:32:40.106Z,990.26
2017-12-01T02:33:46.149Z,990.22
2017-12-01T02:34:52.197Z,990.29
2017-12-01T02:35:59.085Z,990.24
2017-12-01T02:37:04.873Z,990.32
2017-12-01T02:38:10.328Z,990.24
2017-12-01T02:39:17.386Z,990.25
2017-12-01T02:40:22.988Z,990.32
2017-12-01T02:41:28.734Z,990.36
2017-12-01T02:42:34.600Z,990.29
2017-12-01T02:43:40.564Z,990.45
2017-12-01T02:44:46.675Z,990.34
2017-12-01T02:45:52.667Z,990.46
2017-12-01T02:46:59.206Z,990.30
2017-12-01T02:48:04.755Z,990.56
2017-12-01T02:49:10.793Z,990.50
2017-12-01T02:50:17.357Z,990.56
2017-12-01T02:51:23.417Z,990.50
2017-12-01T02:52:28.939Z,990.54
2017-12-01T02:53:34.926Z,990.50
2017-12-01T02:54:41.110Z,990.47
2017-12-01T02:55:47.855Z,990.49
2017-12-01T02:56:53.136Z,990.48
2017-12-01T02:57:59.595Z,990.46
2017-12-01T02:59:05.717Z,990.46
2017-12-01T03:00:11.690Z,990.56
2017-12-01T03:01:17.249Z,990.63
2017-12-01T03:02:23.788Z,990.68
2017-12-01T03:03:29.287Z,990.73
2017-12-01T03:04:35.960Z,990.65
2017-12-01T03:05:41.371Z,990.63
2017-12-01T03:06:48.001Z,990.59
2017-12-01T03:07:54.448Z,990.60
2017-12-01T03:08:59.490Z,990.62
2017-12-01T03:10:05.528Z,990.48
2017-12-01T03:11:11.593Z,990.55
2017-12-01T03:12:17.596Z,990.61
2017-12-01T03:13:23.660Z,990.63
2017-12-01T03:14:30.227Z,990.61
2017-12-01T03:15:36.346Z,990.51
2017-12-01T03:16:42.502Z,990.64
2017-12-01T03:17:48.787Z,990.69
2017-12-01T03:18:53.834Z,990.65
2017-12-01T03:20:00.382Z,990.72
2017-12-01T03:21:05.949Z,990.78
2017-12-01T03:22:11.940Z,990.67
2017-12-01T03:23:17.998Z,990.66
2017-12-01T03:24:24.001Z,990.67
2017-12-01T03:25:30.403Z,990.79
2017-12-01T03:26:36.181Z,990.95
2017-12-01T03:27:42.686Z,990.84
2017-12-01T03:28:48.674Z,990.16
2017-12-01T03:29:54.706Z,990.49
2017-12-01T03:31:00.791Z,990.66
2017-12-01T03:32:06.316Z,990.71
2017-12-01T03:33:12.318Z,990.76
2017-12-01T03:34:18.970Z,990.71
2017-12-01T03:35:24.445Z,990.75
2017-12-01T03:36:30.910Z,990.78
2017-12-01T03:37:36.938Z,990.77
2017-12-01T03:38:42.996Z,990.81
2017-12-01T03:39:49.036Z,990.76
2017-12-01T03:40:55.317Z,990.85
2017-12-01T03:42:00.698Z,990.71
2017-12-01T03:43:07.088Z,990.85
2017-12-01T03:44:12.692Z,990.82
2017-12-01T03:45:19.254Z,990.77
2017-12-01T03:46:24.674Z,990.85
2017-12-01T03:47:31.350Z,990.82
2017-12-01T03:48:36.720Z,990.74
2017-12-01T03:49:43.346Z,990.86
2017-12-01T03:50:48.814Z,990.91
2017-12-01T03:51:55.552Z,990.98
2017-12-01T03:53:00.909Z,990.97
2017-12-01T03:54:07.437Z,990.94
2017-12-01T03:55:12.862Z,990.99
2017-12-01T03:56:18.911Z,990.96
2017-12-01T03:57:24.999Z,990.95
2017-12-01T03:58:31.559Z,991.12
2017-12-01T03:59:36.982Z,991.01
2017-12-01T04:00:43.118Z,991.06
2017-12-01T04:01:49.529Z,991.16
2017-12-01T04:02:55.042Z,991.11
2017-12-01T04:04:01.605Z,991.03
2017-12-01T04:05:07.648Z,990.99
2017-12-01T04:06:13.785Z,991.08
2017-12-01T04:07:19.618Z,991.12
2017-12-01T04:08:25.766Z,991.05
2017-12-01T04:09:31.748Z,991.08
2017-12-01T04:10:37.733Z,991.18
2017-12-01T04:11:43.775Z,991.21
2017-12-01T04:12:49.859Z,991.25
2017-12-01T04:13:55.235Z,991.23
2017-12-01T04:15:01.861Z,991.30
2017-12-01T04:16:07.347Z,991.20
2017-12-01T04:17:13.885Z,991.17
2017-12-01T04:18:19.317Z,991.15
2017-12-01T04:19:25.332Z,991.18
2017-12-01T04:20:32.012Z,991.14
2017-12-01T04:21:38.237Z,991.15
2017-12-01T04:22:43.924Z,991.12
2017-12-01T04:23:49.977Z,991.10
2017-12-01T04:24:55.403Z,991.09
2017-12-01T04:26:01.452Z,991.04
2017-12-01T04:27:08.287Z,991.11
2017-12-01T04:28:13.439Z,991.10
2017-12-01T04:29:19.451Z,991.19
2017-12-01T04:30:26.056Z,991.18
2017-12-01T04:31:31.680Z,991.10
2017-12-01T04:32:38.019Z,991.14
2017-12-01T04:33:44.096Z,991.14
2017-12-01T04:34:49.635Z,991.17
2017-12-01T04:35:55.556Z,991.18
2017-12-01T04:37:02.338Z,991.20
2017-12-01T04:38:07.577Z,991.24
2017-12-01T04:39:13.571Z,991.27
2017-12-01T04:40:19.587Z,991.23
2017-12-01T04:41:25.647Z,991.30
2017-12-01T04:42:31.627Z,991.15
2017-12-01T04:43:37.653Z,991.24
2017-12-01T04:44:43.769Z,991.28
2017-12-01T04:45:49.675Z,991.29
2017-12-01T04:46:56.093Z,991.26
2017-12-01T04:48:02.230Z,991.29
2017-12-01T04:49:07.734Z,991.32
2017-12-01T04:50:13.750Z,991.28
2017-12-01T04:51:20.381Z,991.37
2017-12-01T04:52:25.802Z,991.45
2017-12-01T04:53:31.926Z,991.50
2017-12-01T04:54:38.410Z,991.44
2017-12-01T04:55:44.536Z,991.57
2017-12-01T04:56:49.937Z,991.67
2017-12-01T04:57:55.912Z,991.71
2017-12-01T04:59:01.941Z,991.71
2017-12-01T05:00:07.966Z,991.85
2017-12-01T05:01:14.783Z,991.82
2017-12-01T05:02:20.114Z,991.90
2017-12-01T05:03:26.598Z,991.87
2017-12-01T05:04:32.066Z,991.84
2017-12-01T05:05:38.258Z,991.75
2017-12-01T05:06:44.661Z,991.75
2017-12-01T05:07:50.176Z,991.72
2017-12-01T05:08:56.915Z,991.72
2017-12-01T05:10:02.694Z,991.70
2017-12-01T05:11:08.422Z,991.72
2017-12-01T05:12:14.287Z,991.75
2017-12-01T05:13:20.923Z,991.75
2017-12-01T05:14:26.941Z,991.88
2017-12-01T05:15:32.827Z,991.98
2017-12-01T05:16:38.322Z,992.06
2017-12-01T05:17:44.325Z,991.97
2017-12-01T05:18:50.357Z,992.05
2017-12-01T05:19:56.481Z,992.04
2017-12-01T05:21:02.380Z,991.99
2017-12-01T05:22:08.430Z,991.97
2017-12-01T05:23:14.963Z,991.81
2017-12-01T05:24:20.437Z,991.82
2017-12-01T05:25:27.239Z,991.84
2017-12-01T05:26:32.992Z,991.87
2017-12-01T05:27:39.058Z,991.90
2017-12-01T05:28:44.530Z,992.06
2017-12-01T05:29:50.746Z,992.05
2017-12-01T05:30:56.661Z,992.11
2017-12-01T05:32:03.155Z,992.04
2017-12-01T05:33:09.206Z,992.19
2017-12-01T05:34:15.158Z,992.19
2017-12-01T05:35:21.195Z,992.20
2017-12-01T05:36:26.818Z,992.18
2017-12-01T05:37:32.716Z,992.22
2017-12-01T05:38:39.339Z,992.25
2017-12-01T05:39:44.874Z,992.26
2017-12-01T05:40:50.900Z,992.29
2017-12-01T05:41:56.856Z,992.27
2017-12-01T05:43:03.438Z,992.35
2017-12-01T05:44:09.890Z,992.29
2017-12-01T05:45:14.925Z,992.40
2017-12-01T05:46:21.475Z,992.36
2017-12-01T05:47:27.551Z,992.39
2017-12-01T05:48:33.572Z,992.40
2017-12-01T05:49:39.694Z,992.45
2017-12-01T05:50:45.595Z,992.53
2017-12-01T05:51:51.225Z,992.56
2017-12-01T05:52:57.850Z,992.51
2017-12-01T05:54:03.209Z,992.50
2017-12-01T05:55:09.874Z,992.45
2017-12-01T05:56:15.814Z,992.53
2017-12-01T05:57:21.885Z,992.44
2017-12-01T05:58:27.349Z,992.48
2017-12-01T05:59:34.034Z,992.55
2017-12-01T06:00:40.082Z,992.60
2017-12-01T06:01:45.632Z,992.61
2017-12-01T06:02:52.004Z,992.65
2017-12-01T06:03:58.054Z,992.71
2017-12-01T06:05:04.104Z,992.72
2017-12-01T06:06:10.562Z,992.78
2017-12-01T06:07:16.213Z,992.69
2017-12-01T06:08:21.670Z,992.76
2017-12-01T06:09:28.313Z,992.76
2017-12-01T06:10:34.264Z,992.77
2017-12-01T06:11:40.302Z,992.83
2017-12-01T06:12:46.440Z,992.75
2017-12-01T06:13:51.964Z,992.80
2017-12-01T06:14:58.457Z,992.87
2017-12-01T06:16:03.988Z,992.89
2017-12-01T06:17:10.215Z,992.92
2017-12-01T06:18:16.667Z,992.87
2017-12-01T06:19:22.059Z,992.93
2017-12-01T06:20:28.253Z,992.94
2017-12-01T06:21:34.914Z,992.87
2017-12-01T06:22:40.689Z,992.92
2017-12-01T06:23:46.761Z,992.98
2017-12-01T06:24:52.248Z,993.03
2017-12-01T06:25:58.283Z,993.00
2017-12-01T06:27:04.458Z,993.01
2017-12-01T06:28:10.492Z,993.03
2017-12-01T06:29:17.051Z,993.04
2017-12-01T06:30:24.073Z,993.02
2017-12-01T06:31:28.479Z,993.14
2017-12-01T06:32:35.213Z,993.14
2017-12-01T06:33:40.570Z,993.22
2017-12-01T06:34:46.785Z,993.21
2017-12-01T06:35:53.246Z,993.28
2017-12-01T06:36:58.703Z,993.22
2017-12-01T06:38:05.213Z,993.24
2017-12-01T06:39:10.951Z,993.31
2017-12-01T06:40:17.364Z,993.23
2017-12-01T06:41:23.359Z,993.40
2017-12-01T06:42:28.936Z,993.18
2017-12-01T06:43:35.009Z,993.36
2017-12-01T06:44:41.147Z,993.41
2017-12-01T06:45:47.685Z,993.35
2017-12-01T06:46:53.744Z,993.39
2017-12-01T06:47:59.107Z,993.40
2017-12-01T06:49:05.686Z,993.43
2017-12-01T06:50:11.738Z,993.38
2017-12-01T06:51:17.249Z,993.49
2017-12-01T06:52:23.402Z,993.49
2017-12-01T06:53:29.349Z,993.52
2017-12-01T06:54:35.910Z,993.51
2017-12-01T06:55:41.418Z,993.54
2017-12-01T06:56:48.083Z,993.55
2017-12-01T06:57:53.540Z,993.55
2017-12-01T06:59:00.164Z,993.59
2017-12-01T07:00:06.153Z,993.68
2017-12-01T07:01:12.329Z,993.72
2017-12-01T07:02:18.221Z,993.66
2017-12-01T07:03:24.359Z,993.62
2017-12-01T07:04:29.799Z,993.73
2017-12-01T07:05:35.813Z,993.72
2017-12-01T07:06:42.506Z,993.74
2017-12-01T07:07:48.497Z,993.66
2017-12-01T07:08:54.092Z,993.83
2017-12-01T07:10:00.653Z,993.74
2017-12-01T07:11:06.047Z,993.72
2017-12-01T07:12:12.179Z,993.81
2017-12-01T07:13:18.230Z,993.82
2017-12-01T07:14:24.795Z,993.78
2017-12-01T07:15:30.827Z,993.85
2017-12-01T07:16:36.422Z,993.81
2017-12-01T07:17:42.591Z,993.98
2017-12-01T07:18:48.534Z,993.99
2017-12-01T07:19:54.433Z,993.99
2017-12-01T07:21:01.073Z,994.01
2017-12-01T07:22:07.040Z,994.02
2017-12-01T07:23:12.654Z,994.05
2017-12-01T07:24:19.292Z,994.06
2017-12-01T07:25:24.750Z,994.10
2017-12-01T07:26:31.297Z,994.12
2017-12-01T07:27:37.297Z,994.11
2017-12-01T07:28:43.382Z,994.16
2017-12-01T07:29:49.373Z,994.14
2017-12-01T07:30:55.000Z,994.13
2017-12-01T07:32:01.755Z,994.12
2017-12-01T07:33:07.507Z,994.21
2017-12-01T07:34:13.558Z,994.13
2017-12-01T07:35:19.708Z,994.13
2017-12-01T07:36:25.164Z,994.14
2017-12-01T07:37:31.742Z,994.16
2017-12-01T07:38:37.922Z,994.23
2017-12-01T07:39:44.821Z,994.15
2017-12-01T07:40:49.433Z,994.25
2017-12-01T07:41:56.988Z,994.23
2017-12-01T07:43:02.230Z,994.27
2017-12-01T07:44:07.522Z,994.25
2017-12-01T07:45:13.584Z,994.21
2017-12-01T07:46:20.364Z,994.24
2017-12-01T07:47:26.258Z,994.25
2017-12-01T07:48:31.847Z,994.25
2017-12-01T07:49:37.776Z,994.27
2017-12-01T07:50:44.394Z,994.32
2017-12-01T07:51:49.931Z,994.30
2017-12-01T07:52:56.283Z,994.40
2017-12-01T07:54:02.005Z,994.31
2017-12-01T07:55:08.041Z,994.34
2017-12-01T07:56:14.591Z,994.37
2017-12-01T07:57:20.860Z,994.37
2017-12-01T07:58:26.218Z,994.36
2017-12-01T07:59:32.452Z,994.41
2017-12-01T08:00:38.413Z,994.39
2017-12-01T08:01:44.380Z,994.40
2017-12-01T08:02:51.299Z,994.44
2017-12-01T08:03:56.524Z,994.49
2017-12-01T08:05:03.139Z,994.49
2017-12-01T08:06:09.177Z,994.51
2017-12-01T08:07:14.688Z,994.48
2017-12-01T08:08:21.525Z,994.49
2017-12-01T08:09:26.802Z,994.58
2017-12-01T08:10:33.367Z,994.63
2017-12-01T08:11:39.007Z,994.60
2017-12-01T08:12:44.999Z,994.62
2017-12-01T08:13:51.101Z,994.65
2017-12-01T08:14:57.153Z,994.61
2017-12-01T08:16:03.804Z,994.64
2017-12-01T08:17:09.222Z,994.62
2017-12-01T08:18:15.418Z,994.68
2017-12-01T08:19:21.522Z,994.71
2017-12-01T08:20:27.573Z,994.65
2017-12-01T08:21:33.623Z,994.69
2017-12-01T08:22:40.114Z,994.68
2017-12-01T08:23:47.125Z,994.77
2017-12-01T08:24:51.720Z,994.74
2017-12-01T08:25:58.372Z,994.80
2017-12-01T08:27:03.902Z,994.84
2017-12-01T08:28:09.936Z,994.83
2017-12-01T08:29:16.581Z,994.79
2017-12-01T08:30:22.920Z,994.77
2017-12-01T08:31:28.124Z,994.84
2017-12-01T08:32:34.852Z,994.92
2017-12-01T08:33:40.230Z,994.80
2017-12-01T08:34:46.851Z,994.82
2017-12-01T08:35:53.154Z,994.88
2017-12-01T08:36:58.610Z,994.85
2017-12-01T08:38:04.533Z,994.85
2017-12-01T08:39:10.642Z,994.94
2017-12-01T08:40:16.698Z,994.84
2017-12-01T08:41:22.925Z,994.91
2017-12-01T08:42:28.958Z,994.89
2017-12-01T08:43:35.006Z,995.02
2017-12-01T08:44:41.011Z,995.05
2017-12-01T08:45:47.080Z,995.07
2017-12-01T08:46:53.208Z,995.09
2017-12-01T08:47:59.407Z,995.01
2017-12-01T08:49:05.950Z,995.02
2017-12-01T08:50:11.436Z,995.12
2017-12-01T08:51:18.286Z,995.06
2017-12-01T08:52:23.708Z,995.21
2017-12-01T08:53:30.295Z,995.14
2017-12-01T08:54:36.536Z,995.24
2017-12-01T08:55:41.860Z,995.28
2017-12-01T08:56:48.211Z,995.24
2017-12-01T08:57:54.082Z,995.27
2017-12-01T08:59:00.204Z,995.31
2017-12-01T09:00:06.291Z,995.31
2017-12-01T09:01:12.340Z,995.22
2017-12-01T09:02:19.073Z,995.18
2017-12-01T09:03:24.601Z,995.14
2017-12-01T09:04:30.514Z,995.13
2017-12-01T09:05:37.159Z,995.10
2017-12-01T09:06:42.673Z,995.08
2017-12-01T09:07:49.432Z,995.07
2017-12-01T09:08:55.462Z,995.15
2017-12-01T09:10:01.540Z,995.29
2017-12-01T09:11:07.579Z,995.34
2017-12-01T09:12:13.604Z,995.35
2017-12-01T09:13:19.245Z,995.40
2017-12-01T09:14:25.397Z,995.57
2017-12-01T09:15:31.445Z,995.54
2017-12-01T09:16:37.423Z,995.49
2017-12-01T09:17:43.590Z,995.62
2017-12-01T09:18:50.060Z,995.55
2017-12-01T09:19:56.359Z,995.40
2017-12-01T09:21:03.838Z,995.42
2017-12-01T09:22:08.283Z,995.46
2017-12-01T09:23:14.463Z,995.43
2017-12-01T09:24:20.550Z,995.48
2017-12-01T09:25:26.606Z,995.40
2017-12-01T09:26:32.164Z,995.37
2017-12-01T09:27:38.154Z,995.45
2017-12-01T09:28:45.070Z,995.50
2017-12-01T09:29:50.834Z,995.58
2017-12-01T09:30:56.407Z,995.51
2017-12-01T09:32:02.525Z,995.43
2017-12-01T09:33:08.520Z,995.46
2017-12-01T09:34:15.055Z,995.61
2017-12-01T09:35:21.247Z,995.55
2017-12-01T09:36:27.222Z,995.62
2017-12-01T09:37:33.268Z,995.60
2017-12-01T09:38:39.200Z,995.55
2017-12-01T09:39:45.470Z,995.61
2017-12-01T09:40:51.517Z,995.57
2017-12-01T09:41:57.231Z,995.53
2017-12-01T09:43:03.632Z,995.72
2017-12-01T09:44:09.843Z,995.71
2017-12-01T09:45:15.887Z,995.72
2017-12-01T09:46:21.319Z,995.66
2017-12-01T09:47:27.401Z,995.72
2017-12-01T09:48:33.482Z,995.79
2017-12-01T09:49:39.534Z,995.77
2017-12-01T09:50:46.161Z,995.76
2017-12-01T09:51:51.669Z,995.81
2017-12-01T09:52:58.333Z,995.74
2017-12-01T09:54:04.327Z,995.84
2017-12-01T09:55:10.464Z,995.82
2017-12-01T09:56:16.507Z,995.80
2017-12-01T09:57:22.072Z,995.89
2017-12-01T09:58:28.860Z,995.98
2017-12-01T09:59:34.172Z,995.93
2017-12-01T10:00:40.297Z,995.88
2017-12-01T10:01:46.330Z,995.96
2017-12-01T10:02:52.398Z,995.93
2017-12-01T10:03:58.501Z,996.11
2017-12-01T10:05:04.552Z,995.94
2017-12-01T10:06:10.702Z,995.90
2017-12-01T10:07:16.765Z,995.94
2017-12-01T10:08:22.778Z,996.00
2017-12-01T10:09:28.835Z,995.99
2017-12-01T10:10:34.919Z,996.11
2017-12-01T10:11:41.504Z,996.07
2017-12-01T10:12:47.140Z,996.16
2017-12-01T10:13:53.712Z,996.24
2017-12-01T10:14:59.237Z,996.11
2017-12-01T10:16:05.390Z,996.12
2017-12-01T10:17:11.508Z,996.15
2017-12-01T10:18:17.776Z,996.15
2017-12-01T10:19:23.535Z,996.23
2017-12-01T10:20:29.628Z,996.19
2017-12-01T10:21:36.026Z,996.22
2017-12-01T10:22:41.783Z,996.21
2017-12-01T10:23:47.946Z,996.11
2017-12-01T10:24:53.947Z,996.11
2017-12-01T10:26:00.109Z,996.08
2017-12-01T10:27:06.178Z,996.23
2017-12-01T10:28:12.744Z,996.17
2017-12-01T10:29:19.328Z,996.21
2017-12-01T10:30:24.505Z,996.17
2017-12-01T10:31:30.478Z,996.14
2017-12-01T10:32:36.531Z,996.12
2017-12-01T10:33:42.639Z,995.96
2017-12-01T10:34:48.699Z,996.07
2017-12-01T10:35:55.400Z,996.01
2017-12-01T10:37:00.896Z,995.97
2017-12-01T10:38:07.007Z,996.09
2017-12-01T10:39:13.154Z,996.13
2017-12-01T10:40:19.245Z,996.05
2017-12-01T10:41:25.438Z,995.99
2017-12-01T10:42:31.490Z,995.94
2017-12-01T10:43:37.634Z,995.90
2017-12-01T10:44:43.740Z,996.01
2017-12-01T10:45:49.883Z,996.15
2017-12-01T10:46:56.081Z,996.29
2017-12-01T10:48:02.195Z,996.37
2017-12-01T10:49:08.358Z,996.37
2017-12-01T10:50:14.494Z,996.56
2017-12-01T10:51:21.296Z,996.69
2017-12-01T10:52:27.354Z,996.69
2017-12-01T10:53:33.022Z,996.62
2017-12-01T10:54:39.171Z,996.58
2017-12-01T10:55:45.392Z,996.55
2017-12-01T10:56:52.062Z,996.56
2017-12-01T10:57:57.664Z,996.48
2017-12-01T10:59:04.030Z,996.61
2017-12-01T11:00:09.970Z,996.41
2017-12-01T11:01:16.149Z,996.45
2017-12-01T11:02:22.821Z,996.57
2017-12-01T11:03:29.438Z,996.59
2017-12-01T11:04:35.682Z,996.43
2017-12-01T11:05:40.832Z,996.48
2017-12-01T11:06:46.913Z,996.48
2017-12-01T11:07:52.988Z,996.48
2017-12-01T11:08:59.225Z,996.55
2017-12-01T11:10:05.359Z,996.49
2017-12-01T11:11:11.409Z,996.54
2017-12-01T11:12:18.076Z,996.47
2017-12-01T11:13:23.786Z,996.58
2017-12-01T11:14:30.556Z,996.63
2017-12-01T11:15:36.013Z,996.56
2017-12-01T11:16:42.069Z,996.63
2017-12-01T11:17:48.394Z,996.59
2017-12-01T11:18:54.621Z,996.65
2017-12-01T11:20:00.517Z,996.81
2017-12-01T11:21:06.582Z,996.75
2017-12-01T11:22:12.718Z,996.74
2017-12-01T11:23:18.826Z,996.74
2017-12-01T11:24:25.039Z,996.73
2017-12-01T11:25:31.142Z,996.81
2017-12-01T11:26:37.177Z,996.71
2017-12-01T11:27:43.295Z,996.72
2017-12-01T11:28:49.440Z,996.68
2017-12-01T11:29:56.157Z,996.73
2017-12-01T11:31:01.730Z,996.70
2017-12-01T11:32:07.783Z,996.74
2017-12-01T11:33:13.925Z,996.75
2017-12-01T11:34:19.974Z,996.76
2017-12-01T11:35:26.079Z,996.79
2017-12-01T11:36:32.176Z,996.74
2017-12-01T11:37:38.280Z,996.81
2017-12-01T11:38:44.421Z,996.85
2017-12-01T11:39:50.537Z,996.75
2017-12-01T11:40:56.674Z,996.89
2017-12-01T11:42:02.765Z,996.89
2017-12-01T11:43:09.153Z,996.88
2017-12-01T11:44:14.969Z,996.88
2017-12-01T11:45:21.033Z,996.94
2017-12-01T11:46:27.302Z,996.90
2017-12-01T11:47:33.242Z,996.81
2017-12-01T11:48:40.350Z,997.00
2017-12-01T11:49:45.473Z,996.88
2017-12-01T11:50:51.583Z,996.90
2017-12-01T11:51:57.680Z,996.87
2017-12-01T11:53:03.899Z,996.85
2017-12-01T11:54:09.885Z,996.88
2017-12-01T11:55:16.020Z,996.82
2017-12-01T11:56:22.109Z,996.99
2017-12-01T11:57:28.223Z,997.07
2017-12-01T11:58:34.323Z,997.01
2017-12-01T11:59:40.528Z,997.17
2017-12-01T12:00:46.548Z,997.07
2017-12-01T12:01:52.652Z,997.06
2017-12-01T12:02:58.950Z,996.96
2017-12-01T12:04:04.893Z,997.00
2017-12-01T12:05:11.001Z,997.04
2017-12-01T12:06:17.638Z,997.02
2017-12-01T12:07:23.352Z,997.16
2017-12-01T12:08:29.418Z,997.10
2017-12-01T12:09:35.407Z,997.16
2017-12-01T12:10:41.712Z,997.11
2017-12-01T12:11:47.639Z,997.02
2017-12-01T12:12:53.741Z,997.01
2017-12-01T12:13:59.836Z,996.99
2017-12-01T12:15:05.946Z,997.03
2017-12-01T12:16:12.079Z,996.96
2017-12-01T12:17:18.184Z,997.12
2017-12-01T12:18:24.381Z,997.04
2017-12-01T12:19:30.392Z,997.03
2017-12-01T12:20:37.348Z,997.16
2017-12-01T12:21:43.214Z,997.10
2017-12-01T12:22:48.853Z,997.07
2017-12-01T12:23:54.830Z,997.07
2017-12-01T12:25:00.947Z,997.13
2017-12-01T12:26:07.083Z,997.20
2017-12-01T12:27:13.186Z,997.06
2017-12-01T12:28:19.292Z,997.14
2017-12-01T12:29:26.405Z,997.24
2017-12-01T12:30:32.047Z,997.18
2017-12-01T12:31:37.664Z,997.31
2017-12-01T12:32:43.762Z,997.25
2017-12-01T12:33:49.885Z,997.35
2017-12-01T12:34:55.981Z,997.32
2017-12-01T12:36:02.202Z,997.19
2017-12-01T12:37:08.218Z,997.09
2017-12-01T12:38:14.467Z,997.22
2017-12-01T12:39:20.438Z,997.24
2017-12-01T12:40:26.552Z,997.25
2017-12-01T12:41:32.693Z,997.32
2017-12-01T12:42:38.789Z,997.15
2017-12-01T12:43:44.896Z,997.25
2017-12-01T12:44:51.011Z,997.16
2017-12-01T12:45:57.135Z,997.21
2017-12-01T12:47:03.270Z,997.30
2017-12-01T12:48:09.513Z,997.25
2017-12-01T12:49:15.479Z,997.24
2017-12-01T12:50:21.605Z,997.21
2017-12-01T12:51:28.111Z,997.25
2017-12-01T12:52:33.942Z,997.31
2017-12-01T12:53:39.956Z,997.35
2017-12-01T12:54:46.083Z,997.33
2017-12-01T12:55:52.194Z,997.36
2017-12-01T12:56:58.329Z,997.25
2017-12-01T12:58:04.564Z,997.35
2017-12-01T12:59:10.556Z,997.39
2017-12-01T13:00:16.766Z,997.41
2017-12-01T13:01:22.802Z,997.45
2017-12-01T13:02:29.659Z,997.46
2017-12-01T13:03:35.013Z,997.49
2017-12-01T13:04:41.198Z,997.39
2017-12-01T13:05:47.246Z,997.64
2017-12-01T13:06:53.374Z,997.37
2017-12-01T13:07:59.469Z,997.43
2017-12-01T13:09:05.598Z,997.41
2017-12-01T13:10:11.748Z,997.53
2017-12-01T13:11:17.807Z,997.48
2017-12-01T13:12:23.935Z,997.58
2017-12-01T13:13:30.099Z,997.61
2017-12-01T13:14:36.147Z,997.51
2017-12-01T13:15:42.300Z,997.45
2017-12-01T13:16:48.522Z,997.56
2017-12-01T13:17:54.756Z,997.52
2017-12-01T13:19:00.572Z,997.55
2017-12-01T13:20:06.770Z,997.51
2017-12-01T13:21:12.850Z,997.55
2017-12-01T13:22:18.926Z,997.64
2017-12-01T13:23:25.120Z,997.57
2017-12-01T13:24:31.105Z,997.63
2017-12-01T13:25:37.254Z,997.66
2017-12-01T13:26:43.316Z,997.58
2017-12-01T13:27:49.416Z,997.62
2017-12-01T13:28:55.672Z,997.67
2017-12-01T13:30:01.594Z,997.63
2017-12-01T13:31:07.702Z,997.68
2017-12-01T13:32:13.922Z,997.62
2017-12-01T13:33:20.011Z,997.59
2017-12-01T13:34:25.994Z,997.58
2017-12-01T13:35:32.096Z,997.60
2017-12-01T13:36:38.193Z,997.61
2017-12-01T13:37:44.323Z,997.66
2017-12-01T13:38:50.376Z,997.64
2017-12-01T13:39:56.469Z,997.56
2017-12-01T13:41:02.572Z,997.62
2017-12-01T13:42:08.708Z,997.57
2017-12-01T13:43:14.777Z,997.60
2017-12-01T13:44:21.151Z,997.59